sensor_id;sensor_type;location;lat;lon;timestamp;P1;durP1;ratioP1;P2;durP2;ratioP2
65656;SDS011;57397;50.096;14.404;2023-04-02T00:00:31;0.65;;;0.50;;
65656;SDS011;57397;50.096;14.404;2023-04-02T00:02:58;1.05;;;0.57;;
65656;SDS011;57397;50.096;14.404;2023-04-02T00:08:00;0.55;;;0.40;;
65656;SDS011;57397;50.096;14.404;2023-04-02T00:10:54;0.65;;;0.50;;
65656;SDS011;57397;50.096;14.404;2023-04-02T00:15:50;0.43;;;0.40;;
65656;SDS011;57397;50.096;14.404;2023-04-02T00:18:21;0.60;;;0.40;;
65656;SDS011;57397;50.096;14.404;2023-04-02T00:20:52;0.73;;;0.40;;
65656;SDS011;57397;50.096;14.404;2023-04-02T00:23:20;0.50;;;0.40;;
65656;SDS011;57397;50.096;14.404;2023-04-02T00:25:46;0.60;;;0.50;;
65656;SDS011;57397;50.096;14.404;2023-04-02T00:28:19;0.85;;;0.40;;
65656;SDS011;57397;50.096;14.404;2023-04-02T00:33:14;0.70;;;0.50;;
65656;SDS011;57397;50.096;14.404;2023-04-02T00:35:41;1.30;;;0.50;;
65656;SDS011;57397;50.096;14.404;2023-04-02T00:38:10;0.98;;;0.40;;
65656;SDS011;57397;50.096;14.404;2023-04-02T00:40:43;0.35;;;0.35;;
65656;SDS011;57397;50.096;14.404;2023-04-02T00:43:10;0.60;;;0.50;;
65656;SDS011;57397;50.096;14.404;2023-04-02T00:45:40;0.50;;;0.30;;
65656;SDS011;57397;50.096;14.404;2023-04-02T00:48:38;1.00;;;0.60;;
65656;SDS011;57397;50.096;14.404;2023-04-02T00:51:21;0.63;;;0.50;;
65656;SDS011;57397;50.096;14.404;2023-04-02T00:53:49;0.47;;;0.40;;
65656;SDS011;57397;50.096;14.404;2023-04-02T00:56:18;0.50;;;0.40;;
65656;SDS011;57397;50.096;14.404;2023-04-02T00:58:58;0.52;;;0.50;;
65656;SDS011;57397;50.096;14.404;2023-04-02T01:01:26;0.50;;;0.40;;
65656;SDS011;57397;50.096;14.404;2023-04-02T01:03:54;0.50;;;0.30;;
65656;SDS011;57397;50.096;14.404;2023-04-02T01:06:23;0.50;;;0.40;;
65656;SDS011;57397;50.096;14.404;2023-04-02T01:09:06;0.47;;;0.32;;
65656;SDS011;57397;50.096;14.404;2023-04-02T01:12:05;0.50;;;0.40;;
65656;SDS011;57397;50.096;14.404;2023-04-02T01:22:34;0.40;;;0.30;;
65656;SDS011;57397;50.096;14.404;2023-04-02T01:25:06;0.65;;;0.40;;
65656;SDS011;57397;50.096;14.404;2023-04-02T01:30:35;0.47;;;0.35;;
65656;SDS011;57397;50.096;14.404;2023-04-02T01:33:00;0.50;;;0.40;;
65656;SDS011;57397;50.096;14.404;2023-04-02T01:35:27;1.65;;;0.40;;
65656;SDS011;57397;50.096;14.404;2023-04-02T01:38:01;0.40;;;0.40;;
65656;SDS011;57397;50.096;14.404;2023-04-02T01:45:36;0.65;;;0.40;;
65656;SDS011;57397;50.096;14.404;2023-04-02T01:48:22;2.25;;;0.28;;
65656;SDS011;57397;50.096;14.404;2023-04-02T01:50:49;0.70;;;0.40;;
65656;SDS011;57397;50.096;14.404;2023-04-02T01:53:16;0.75;;;0.40;;
65656;SDS011;57397;50.096;14.404;2023-04-02T01:55:44;0.50;;;0.40;;
65656;SDS011;57397;50.096;14.404;2023-04-02T01:58:13;0.70;;;0.40;;
65656;SDS011;57397;50.096;14.404;2023-04-02T02:00:47;0.40;;;0.40;;
65656;SDS011;57397;50.096;14.404;2023-04-02T02:03:15;0.30;;;0.30;;
65656;SDS011;57397;50.096;14.404;2023-04-02T02:05:41;0.47;;;0.35;;
65656;SDS011;57397;50.096;14.404;2023-04-02T02:08:07;0.40;;;0.30;;
65656;SDS011;57397;50.096;14.404;2023-04-02T02:10:52;0.32;;;0.30;;
65656;SDS011;57397;50.096;14.404;2023-04-02T02:13:18;0.30;;;0.30;;
65656;SDS011;57397;50.096;14.404;2023-04-02T02:15:48;1.15;;;0.77;;
65656;SDS011;57397;50.096;14.404;2023-04-02T02:18:13;0.77;;;0.43;;
65656;SDS011;57397;50.096;14.404;2023-04-02T02:20:41;0.60;;;0.30;;
65656;SDS011;57397;50.096;14.404;2023-04-02T02:23:06;0.52;;;0.40;;
65656;SDS011;57397;50.096;14.404;2023-04-02T02:25:33;0.57;;;0.32;;
65656;SDS011;57397;50.096;14.404;2023-04-02T02:28:42;0.60;;;0.40;;
65656;SDS011;57397;50.096;14.404;2023-04-02T02:30:57;0.60;;;0.40;;
65656;SDS011;57397;50.096;14.404;2023-04-02T02:33:36;0.50;;;0.40;;
65656;SDS011;57397;50.096;14.404;2023-04-02T02:36:07;0.50;;;0.40;;
65656;SDS011;57397;50.096;14.404;2023-04-02T02:41:19;2.88;;;0.52;;
65656;SDS011;57397;50.096;14.404;2023-04-02T02:44:10;0.90;;;0.40;;
65656;SDS011;57397;50.096;14.404;2023-04-02T02:46:42;0.55;;;0.40;;
65656;SDS011;57397;50.096;14.404;2023-04-02T02:49:12;0.50;;;0.40;;
65656;SDS011;57397;50.096;14.404;2023-04-02T02:51:46;0.93;;;0.50;;
65656;SDS011;57397;50.096;14.404;2023-04-02T02:54:14;0.60;;;0.50;;
65656;SDS011;57397;50.096;14.404;2023-04-02T02:56:43;0.60;;;0.40;;
65656;SDS011;57397;50.096;14.404;2023-04-02T02:59:13;0.70;;;0.60;;
65656;SDS011;57397;50.096;14.404;2023-04-02T03:01:40;0.50;;;0.40;;
65656;SDS011;57397;50.096;14.404;2023-04-02T03:04:06;0.50;;;0.40;;
65656;SDS011;57397;50.096;14.404;2023-04-02T03:06:31;0.57;;;0.40;;
65656;SDS011;57397;50.096;14.404;2023-04-02T03:11:25;0.50;;;0.40;;
65656;SDS011;57397;50.096;14.404;2023-04-02T03:14:00;0.70;;;0.40;;
65656;SDS011;57397;50.096;14.404;2023-04-02T03:21:45;0.60;;;0.43;;
65656;SDS011;57397;50.096;14.404;2023-04-02T03:27:14;1.27;;;0.47;;
65656;SDS011;57397;50.096;14.404;2023-04-02T03:29:51;0.98;;;0.32;;
65656;SDS011;57397;50.096;14.404;2023-04-02T03:32:24;0.57;;;0.40;;
65656;SDS011;57397;50.096;14.404;2023-04-02T03:40:32;1.13;;;0.40;;
65656;SDS011;57397;50.096;14.404;2023-04-02T03:45:37;0.60;;;0.50;;
65656;SDS011;57397;50.096;14.404;2023-04-02T03:51:01;1.02;;;0.50;;
65656;SDS011;57397;50.096;14.404;2023-04-02T03:53:30;0.38;;;0.35;;
65656;SDS011;57397;50.096;14.404;2023-04-02T03:55:56;0.88;;;0.55;;
65656;SDS011;57397;50.096;14.404;2023-04-02T03:58:23;0.50;;;0.40;;
65656;SDS011;57397;50.096;14.404;2023-04-02T04:01:04;0.68;;;0.50;;
65656;SDS011;57397;50.096;14.404;2023-04-02T04:04:01;0.85;;;0.50;;
65656;SDS011;57397;50.096;14.404;2023-04-02T04:06:31;0.88;;;0.55;;
65656;SDS011;57397;50.096;14.404;2023-04-02T04:09:17;0.52;;;0.45;;
65656;SDS011;57397;50.096;14.404;2023-04-02T04:11:48;0.50;;;0.40;;
65656;SDS011;57397;50.096;14.404;2023-04-02T04:17:20;0.90;;;0.65;;
65656;SDS011;57397;50.096;14.404;2023-04-02T04:20:50;0.70;;;0.47;;
65656;SDS011;57397;50.096;14.404;2023-04-02T04:22:48;0.98;;;0.50;;
65656;SDS011;57397;50.096;14.404;2023-04-02T04:25:23;2.40;;;0.60;;
65656;SDS011;57397;50.096;14.404;2023-04-02T04:28:06;0.80;;;0.60;;
65656;SDS011;57397;50.096;14.404;2023-04-02T04:30:44;0.88;;;0.52;;
65656;SDS011;57397;50.096;14.404;2023-04-02T04:33:31;0.75;;;0.60;;
65656;SDS011;57397;50.096;14.404;2023-04-02T04:36:04;1.15;;;0.57;;
65656;SDS011;57397;50.096;14.404;2023-04-02T04:38:31;0.95;;;0.52;;
65656;SDS011;57397;50.096;14.404;2023-04-02T04:41:41;0.80;;;0.60;;
65656;SDS011;57397;50.096;14.404;2023-04-02T04:43:49;0.82;;;0.60;;
65656;SDS011;57397;50.096;14.404;2023-04-02T04:46:20;0.57;;;0.50;;
65656;SDS011;57397;50.096;14.404;2023-04-02T04:52:23;0.55;;;0.50;;
65656;SDS011;57397;50.096;14.404;2023-04-02T04:54:50;0.70;;;0.50;;
65656;SDS011;57397;50.096;14.404;2023-04-02T04:57:26;0.75;;;0.52;;
65656;SDS011;57397;50.096;14.404;2023-04-02T05:00:04;0.63;;;0.43;;
65656;SDS011;57397;50.096;14.404;2023-04-02T05:02:44;1.10;;;0.60;;
65656;SDS011;57397;50.096;14.404;2023-04-02T05:05:21;0.85;;;0.50;;
65656;SDS011;57397;50.096;14.404;2023-04-02T05:07:52;0.63;;;0.57;;
65656;SDS011;57397;50.096;14.404;2023-04-02T05:16:23;1.00;;;0.65;;
65656;SDS011;57397;50.096;14.404;2023-04-02T05:18:58;0.93;;;0.70;;
65656;SDS011;57397;50.096;14.404;2023-04-02T05:21:41;1.20;;;0.70;;
65656;SDS011;57397;50.096;14.404;2023-04-02T05:29:58;1.27;;;0.70;;
65656;SDS011;57397;50.096;14.404;2023-04-02T05:32:30;0.82;;;0.60;;
65656;SDS011;57397;50.096;14.404;2023-04-02T05:34:57;2.85;;;0.70;;
65656;SDS011;57397;50.096;14.404;2023-04-02T05:37:23;0.90;;;0.60;;
65656;SDS011;57397;50.096;14.404;2023-04-02T05:39:55;1.08;;;0.70;;
65656;SDS011;57397;50.096;14.404;2023-04-02T05:42:22;0.75;;;0.50;;
65656;SDS011;57397;50.096;14.404;2023-04-02T05:45:03;0.90;;;0.50;;
65656;SDS011;57397;50.096;14.404;2023-04-02T05:47:31;0.80;;;0.50;;
65656;SDS011;57397;50.096;14.404;2023-04-02T05:52:36;0.90;;;0.60;;
65656;SDS011;57397;50.096;14.404;2023-04-02T05:57:43;0.57;;;0.50;;
65656;SDS011;57397;50.096;14.404;2023-04-02T06:00:17;1.23;;;0.65;;
65656;SDS011;57397;50.096;14.404;2023-04-02T06:02:53;0.52;;;0.43;;
65656;SDS011;57397;50.096;14.404;2023-04-02T06:05:28;0.82;;;0.50;;
65656;SDS011;57397;50.096;14.404;2023-04-02T06:08:07;1.27;;;0.60;;
65656;SDS011;57397;50.096;14.404;2023-04-02T06:11:11;0.90;;;0.60;;
65656;SDS011;57397;50.096;14.404;2023-04-02T06:13:41;1.00;;;0.70;;
65656;SDS011;57397;50.096;14.404;2023-04-02T06:16:09;1.08;;;0.80;;
65656;SDS011;57397;50.096;14.404;2023-04-02T06:18:47;1.00;;;0.80;;
65656;SDS011;57397;50.096;14.404;2023-04-02T06:21:13;1.70;;;0.98;;
65656;SDS011;57397;50.096;14.404;2023-04-02T06:23:50;1.00;;;0.80;;
65656;SDS011;57397;50.096;14.404;2023-04-02T06:26:32;1.10;;;0.90;;
65656;SDS011;57397;50.096;14.404;2023-04-02T06:31:46;1.38;;;1.00;;
65656;SDS011;57397;50.096;14.404;2023-04-02T06:34:19;1.30;;;0.82;;
65656;SDS011;57397;50.096;14.404;2023-04-02T06:36:46;1.10;;;0.90;;
65656;SDS011;57397;50.096;14.404;2023-04-02T06:39:20;1.27;;;0.90;;
65656;SDS011;57397;50.096;14.404;2023-04-02T06:44:32;1.20;;;0.80;;
65656;SDS011;57397;50.096;14.404;2023-04-02T06:47:10;1.55;;;0.85;;
65656;SDS011;57397;50.096;14.404;2023-04-02T06:49:43;1.08;;;0.82;;
65656;SDS011;57397;50.096;14.404;2023-04-02T06:52:12;1.35;;;0.75;;
65656;SDS011;57397;50.096;14.404;2023-04-02T06:54:43;1.90;;;1.00;;
65656;SDS011;57397;50.096;14.404;2023-04-02T06:57:09;1.10;;;0.90;;
65656;SDS011;57397;50.096;14.404;2023-04-02T06:59:37;1.25;;;0.70;;
65656;SDS011;57397;50.096;14.404;2023-04-02T07:04:47;1.30;;;0.85;;
65656;SDS011;57397;50.096;14.404;2023-04-02T07:07:13;0.93;;;0.70;;
65656;SDS011;57397;50.096;14.404;2023-04-02T07:09:38;1.17;;;0.98;;
65656;SDS011;57397;50.096;14.404;2023-04-02T07:12:11;1.20;;;0.90;;
65656;SDS011;57397;50.096;14.404;2023-04-02T07:14:37;1.65;;;0.98;;
65656;SDS011;57397;50.096;14.404;2023-04-02T07:17:03;1.23;;;0.90;;
65656;SDS011;57397;50.096;14.404;2023-04-02T07:19:29;1.50;;;0.90;;
65656;SDS011;57397;50.096;14.404;2023-04-02T07:21:54;2.08;;;1.10;;
65656;SDS011;57397;50.096;14.404;2023-04-02T07:24:20;2.13;;;1.20;;
65656;SDS011;57397;50.096;14.404;2023-04-02T07:26:46;2.30;;;1.48;;
65656;SDS011;57397;50.096;14.404;2023-04-02T07:29:15;1.88;;;1.23;;
65656;SDS011;57397;50.096;14.404;2023-04-02T07:31:41;2.42;;;1.70;;
65656;SDS011;57397;50.096;14.404;2023-04-02T07:34:07;2.70;;;1.77;;
65656;SDS011;57397;50.096;14.404;2023-04-02T07:36:34;2.67;;;1.52;;
65656;SDS011;57397;50.096;14.404;2023-04-02T07:39:00;2.63;;;1.70;;
65656;SDS011;57397;50.096;14.404;2023-04-02T07:41:27;2.90;;;1.70;;
65656;SDS011;57397;50.096;14.404;2023-04-02T07:43:54;3.72;;;1.85;;
65656;SDS011;57397;50.096;14.404;2023-04-02T07:46:26;3.78;;;1.90;;
65656;SDS011;57397;50.096;14.404;2023-04-02T07:49:00;3.00;;;1.80;;
65656;SDS011;57397;50.096;14.404;2023-04-02T07:51:31;4.05;;;2.20;;
65656;SDS011;57397;50.096;14.404;2023-04-02T07:53:57;3.20;;;1.85;;
65656;SDS011;57397;50.096;14.404;2023-04-02T07:56:27;2.72;;;1.60;;
65656;SDS011;57397;50.096;14.404;2023-04-02T07:58:53;2.70;;;1.63;;
65656;SDS011;57397;50.096;14.404;2023-04-02T08:01:20;2.95;;;1.70;;
65656;SDS011;57397;50.096;14.404;2023-04-02T08:03:50;3.10;;;1.40;;
65656;SDS011;57397;50.096;14.404;2023-04-02T08:06:16;2.10;;;1.40;;
65656;SDS011;57397;50.096;14.404;2023-04-02T08:08:44;2.80;;;1.42;;
65656;SDS011;57397;50.096;14.404;2023-04-02T08:11:10;1.80;;;1.30;;
65656;SDS011;57397;50.096;14.404;2023-04-02T08:13:35;2.35;;;1.63;;
65656;SDS011;57397;50.096;14.404;2023-04-02T08:16:01;1.88;;;1.50;;
65656;SDS011;57397;50.096;14.404;2023-04-02T08:18:28;3.35;;;1.40;;
65656;SDS011;57397;50.096;14.404;2023-04-02T08:20:56;2.47;;;1.35;;
65656;SDS011;57397;50.096;14.404;2023-04-02T08:23:23;2.20;;;1.40;;
65656;SDS011;57397;50.096;14.404;2023-04-02T08:25:49;2.72;;;1.42;;
65656;SDS011;57397;50.096;14.404;2023-04-02T08:28:15;2.50;;;1.40;;
65656;SDS011;57397;50.096;14.404;2023-04-02T08:30:40;1.98;;;1.40;;
65656;SDS011;57397;50.096;14.404;2023-04-02T08:33:06;2.10;;;1.25;;
65656;SDS011;57397;50.096;14.404;2023-04-02T08:35:33;2.67;;;1.20;;
65656;SDS011;57397;50.096;14.404;2023-04-02T08:38:00;2.40;;;1.20;;
65656;SDS011;57397;50.096;14.404;2023-04-02T08:40:33;1.80;;;1.13;;
65656;SDS011;57397;50.096;14.404;2023-04-02T08:43:15;2.05;;;1.10;;
65656;SDS011;57397;50.096;14.404;2023-04-02T08:48:27;1.73;;;1.30;;
65656;SDS011;57397;50.096;14.404;2023-04-02T08:50:55;1.80;;;1.10;;
65656;SDS011;57397;50.096;14.404;2023-04-02T08:53:28;1.83;;;1.17;;
65656;SDS011;57397;50.096;14.404;2023-04-02T08:55:59;2.08;;;1.15;;
65656;SDS011;57397;50.096;14.404;2023-04-02T09:01:58;1.20;;;1.00;;
65656;SDS011;57397;50.096;14.404;2023-04-02T09:04:45;1.67;;;1.10;;
65656;SDS011;57397;50.096;14.404;2023-04-02T09:07:11;2.03;;;1.13;;
65656;SDS011;57397;50.096;14.404;2023-04-02T09:09:38;1.95;;;1.20;;
65656;SDS011;57397;50.096;14.404;2023-04-02T09:12:05;1.88;;;1.30;;
65656;SDS011;57397;50.096;14.404;2023-04-02T09:17:56;2.03;;;1.20;;
65656;SDS011;57397;50.096;14.404;2023-04-02T09:20:25;1.40;;;1.20;;
65656;SDS011;57397;50.096;14.404;2023-04-02T09:22:53;1.30;;;1.00;;
65656;SDS011;57397;50.096;14.404;2023-04-02T09:25:28;1.33;;;1.10;;
65656;SDS011;57397;50.096;14.404;2023-04-02T09:28:02;1.95;;;1.10;;
65656;SDS011;57397;50.096;14.404;2023-04-02T09:30:39;2.00;;;1.30;;
65656;SDS011;57397;50.096;14.404;2023-04-02T09:33:44;1.40;;;1.23;;
65656;SDS011;57397;50.096;14.404;2023-04-02T09:36:24;2.28;;;1.13;;
65656;SDS011;57397;50.096;14.404;2023-04-02T09:38:58;1.80;;;1.25;;
65656;SDS011;57397;50.096;14.404;2023-04-02T09:41:41;1.30;;;1.20;;
65656;SDS011;57397;50.096;14.404;2023-04-02T09:46:55;1.50;;;1.10;;
65656;SDS011;57397;50.096;14.404;2023-04-02T09:49:25;1.85;;;1.30;;
65656;SDS011;57397;50.096;14.404;2023-04-02T09:55:16;1.45;;;1.05;;
65656;SDS011;57397;50.096;14.404;2023-04-02T09:58:13;1.30;;;1.02;;
65656;SDS011;57397;50.096;14.404;2023-04-02T10:00:49;1.73;;;1.10;;
65656;SDS011;57397;50.096;14.404;2023-04-02T10:03:22;1.90;;;1.40;;
65656;SDS011;57397;50.096;14.404;2023-04-02T10:08:32;1.60;;;1.20;;
65656;SDS011;57397;50.096;14.404;2023-04-02T10:11:02;1.50;;;1.30;;
65656;SDS011;57397;50.096;14.404;2023-04-02T10:13:39;2.28;;;1.30;;
65656;SDS011;57397;50.096;14.404;2023-04-02T10:16:18;4.57;;;1.80;;
65656;SDS011;57397;50.096;14.404;2023-04-02T10:21:51;1.67;;;1.23;;
65656;SDS011;57397;50.096;14.404;2023-04-02T10:24:18;2.53;;;1.55;;
65656;SDS011;57397;50.096;14.404;2023-04-02T10:29:22;1.45;;;1.23;;
65656;SDS011;57397;50.096;14.404;2023-04-02T10:31:58;2.00;;;1.27;;
65656;SDS011;57397;50.096;14.404;2023-04-02T10:34:34;2.17;;;1.30;;
65656;SDS011;57397;50.096;14.404;2023-04-02T10:40:00;2.45;;;1.50;;
65656;SDS011;57397;50.096;14.404;2023-04-02T10:42:58;2.17;;;1.70;;
65656;SDS011;57397;50.096;14.404;2023-04-02T10:45:37;2.60;;;1.63;;
65656;SDS011;57397;50.096;14.404;2023-04-02T10:48:10;3.20;;;1.50;;
65656;SDS011;57397;50.096;14.404;2023-04-02T10:56:16;2.40;;;1.40;;
65656;SDS011;57397;50.096;14.404;2023-04-02T10:59:02;1.92;;;1.30;;
65656;SDS011;57397;50.096;14.404;2023-04-02T11:01:51;2.55;;;1.35;;
65656;SDS011;57397;50.096;14.404;2023-04-02T11:04:24;2.88;;;1.20;;
65656;SDS011;57397;50.096;14.404;2023-04-02T11:07:00;1.70;;;1.30;;
65656;SDS011;57397;50.096;14.404;2023-04-02T11:09:30;1.27;;;1.13;;
65656;SDS011;57397;50.096;14.404;2023-04-02T11:11:57;1.88;;;1.55;;
65656;SDS011;57397;50.096;14.404;2023-04-02T11:14:25;1.63;;;1.20;;
65656;SDS011;57397;50.096;14.404;2023-04-02T11:16:52;1.83;;;1.40;;
65656;SDS011;57397;50.096;14.404;2023-04-02T11:19:24;1.98;;;1.30;;
65656;SDS011;57397;50.096;14.404;2023-04-02T11:21:58;1.67;;;1.27;;
65656;SDS011;57397;50.096;14.404;2023-04-02T11:27:05;2.72;;;1.67;;
65656;SDS011;57397;50.096;14.404;2023-04-02T11:39:59;1.77;;;1.30;;
65656;SDS011;57397;50.096;14.404;2023-04-02T11:42:32;1.65;;;1.10;;
65656;SDS011;57397;50.096;14.404;2023-04-02T11:52:54;2.03;;;1.50;;
65656;SDS011;57397;50.096;14.404;2023-04-02T11:55:25;2.50;;;1.50;;
65656;SDS011;57397;50.096;14.404;2023-04-02T11:57:58;1.52;;;1.25;;
65656;SDS011;57397;50.096;14.404;2023-04-02T12:03:35;1.98;;;1.40;;
65656;SDS011;57397;50.096;14.404;2023-04-02T12:11:58;2.38;;;1.60;;
65656;SDS011;57397;50.096;14.404;2023-04-02T12:14:31;2.40;;;1.67;;
65656;SDS011;57397;50.096;14.404;2023-04-02T12:19:47;1.73;;;1.40;;
65656;SDS011;57397;50.096;14.404;2023-04-02T12:22:21;2.58;;;1.60;;
65656;SDS011;57397;50.096;14.404;2023-04-02T12:24:47;2.65;;;1.85;;
65656;SDS011;57397;50.096;14.404;2023-04-02T12:27:18;2.90;;;1.77;;
65656;SDS011;57397;50.096;14.404;2023-04-02T12:29:47;2.95;;;1.70;;
65656;SDS011;57397;50.096;14.404;2023-04-02T12:37:20;2.28;;;1.65;;
65656;SDS011;57397;50.096;14.404;2023-04-02T12:39:50;2.28;;;1.80;;
65656;SDS011;57397;50.096;14.404;2023-04-02T12:42:33;2.30;;;1.67;;
65656;SDS011;57397;50.096;14.404;2023-04-02T12:45:00;3.33;;;1.85;;
65656;SDS011;57397;50.096;14.404;2023-04-02T12:47:28;2.85;;;2.03;;
65656;SDS011;57397;50.096;14.404;2023-04-02T12:49:55;2.75;;;1.98;;
65656;SDS011;57397;50.096;14.404;2023-04-02T12:52:23;2.45;;;1.70;;
65656;SDS011;57397;50.096;14.404;2023-04-02T12:54:57;2.72;;;2.03;;
65656;SDS011;57397;50.096;14.404;2023-04-02T12:59:56;2.28;;;1.92;;
65656;SDS011;57397;50.096;14.404;2023-04-02T13:02:43;4.50;;;2.20;;
65656;SDS011;57397;50.096;14.404;2023-04-02T13:05:12;2.40;;;1.88;;
65656;SDS011;57397;50.096;14.404;2023-04-02T13:07:56;2.45;;;1.90;;
65656;SDS011;57397;50.096;14.404;2023-04-02T13:10:25;2.55;;;2.00;;
65656;SDS011;57397;50.096;14.404;2023-04-02T13:12:56;2.78;;;2.10;;
65656;SDS011;57397;50.096;14.404;2023-04-02T13:15:27;2.58;;;2.03;;
65656;SDS011;57397;50.096;14.404;2023-04-02T13:18:12;3.10;;;1.90;;
65656;SDS011;57397;50.096;14.404;2023-04-02T13:20:58;3.22;;;2.42;;
65656;SDS011;57397;50.096;14.404;2023-04-02T13:23:32;3.10;;;2.33;;
65656;SDS011;57397;50.096;14.404;2023-04-02T13:28:38;2.72;;;2.17;;
65656;SDS011;57397;50.096;14.404;2023-04-02T13:31:13;3.05;;;1.98;;
65656;SDS011;57397;50.096;14.404;2023-04-02T13:33:45;2.30;;;1.95;;
65656;SDS011;57397;50.096;14.404;2023-04-02T13:36:13;2.92;;;2.05;;
65656;SDS011;57397;50.096;14.404;2023-04-02T13:38:45;3.55;;;2.65;;
65656;SDS011;57397;50.096;14.404;2023-04-02T13:41:16;3.38;;;2.25;;
65656;SDS011;57397;50.096;14.404;2023-04-02T13:43:54;2.33;;;2.13;;
65656;SDS011;57397;50.096;14.404;2023-04-02T13:46:23;3.03;;;2.40;;
65656;SDS011;57397;50.096;14.404;2023-04-02T13:48:51;2.60;;;1.98;;
65656;SDS011;57397;50.096;14.404;2023-04-02T13:51:18;2.85;;;2.30;;
65656;SDS011;57397;50.096;14.404;2023-04-02T13:53:50;2.58;;;2.00;;
65656;SDS011;57397;50.096;14.404;2023-04-02T13:56:18;3.40;;;2.53;;
65656;SDS011;57397;50.096;14.404;2023-04-02T13:58:47;3.17;;;2.25;;
65656;SDS011;57397;50.096;14.404;2023-04-02T14:01:12;3.22;;;2.35;;
65656;SDS011;57397;50.096;14.404;2023-04-02T14:03:39;3.30;;;2.38;;
65656;SDS011;57397;50.096;14.404;2023-04-02T14:09:09;3.70;;;2.55;;
65656;SDS011;57397;50.096;14.404;2023-04-02T14:11:52;3.47;;;2.15;;
65656;SDS011;57397;50.096;14.404;2023-04-02T14:20:11;3.13;;;2.53;;
65656;SDS011;57397;50.096;14.404;2023-04-02T14:28:27;3.42;;;2.50;;
65656;SDS011;57397;50.096;14.404;2023-04-02T14:31:45;2.92;;;2.30;;
65656;SDS011;57397;50.096;14.404;2023-04-02T14:34:40;3.03;;;2.40;;
65656;SDS011;57397;50.096;14.404;2023-04-02T14:42:23;3.40;;;2.67;;
65656;SDS011;57397;50.096;14.404;2023-04-02T14:45:04;2.90;;;2.33;;
65656;SDS011;57397;50.096;14.404;2023-04-02T14:47:46;2.95;;;2.55;;
65656;SDS011;57397;50.096;14.404;2023-04-02T14:53:11;3.90;;;2.60;;
65656;SDS011;57397;50.096;14.404;2023-04-02T14:55:47;3.00;;;2.70;;
65656;SDS011;57397;50.096;14.404;2023-04-02T14:58:17;3.60;;;2.55;;
65656;SDS011;57397;50.096;14.404;2023-04-02T15:00:54;4.90;;;2.85;;
65656;SDS011;57397;50.096;14.404;2023-04-02T15:03:47;4.45;;;2.60;;
65656;SDS011;57397;50.096;14.404;2023-04-02T15:06:43;3.00;;;2.30;;
65656;SDS011;57397;50.096;14.404;2023-04-02T15:09:19;2.78;;;2.40;;
65656;SDS011;57397;50.096;14.404;2023-04-02T15:11:53;3.20;;;2.70;;
65656;SDS011;57397;50.096;14.404;2023-04-02T15:14:36;3.15;;;2.50;;
65656;SDS011;57397;50.096;14.404;2023-04-02T15:17:09;3.22;;;2.42;;
65656;SDS011;57397;50.096;14.404;2023-04-02T15:19:41;2.78;;;2.45;;
65656;SDS011;57397;50.096;14.404;2023-04-02T15:30:21;3.13;;;2.33;;
65656;SDS011;57397;50.096;14.404;2023-04-02T15:32:47;2.95;;;2.30;;
65656;SDS011;57397;50.096;14.404;2023-04-02T15:45:52;3.38;;;2.42;;
65656;SDS011;57397;50.096;14.404;2023-04-02T15:48:30;2.95;;;2.45;;
65656;SDS011;57397;50.096;14.404;2023-04-02T15:54:34;3.17;;;2.38;;
65656;SDS011;57397;50.096;14.404;2023-04-02T16:08:08;2.40;;;2.13;;
65656;SDS011;57397;50.096;14.404;2023-04-02T16:10:40;3.15;;;2.28;;
65656;SDS011;57397;50.096;14.404;2023-04-02T16:15:45;2.83;;;2.20;;
65656;SDS011;57397;50.096;14.404;2023-04-02T16:18:19;3.55;;;2.28;;
65656;SDS011;57397;50.096;14.404;2023-04-02T16:20:53;3.60;;;2.10;;
65656;SDS011;57397;50.096;14.404;2023-04-02T16:23:21;3.28;;;2.15;;
65656;SDS011;57397;50.096;14.404;2023-04-02T16:28:28;2.92;;;2.30;;
65656;SDS011;57397;50.096;14.404;2023-04-02T16:31:01;2.65;;;2.13;;
65656;SDS011;57397;50.096;14.404;2023-04-02T16:45:12;2.97;;;2.22;;
65656;SDS011;57397;50.096;14.404;2023-04-02T16:47:55;2.65;;;2.20;;
65656;SDS011;57397;50.096;14.404;2023-04-02T17:07:09;3.15;;;2.17;;
65656;SDS011;57397;50.096;14.404;2023-04-02T17:09:50;3.60;;;2.60;;
65656;SDS011;57397;50.096;14.404;2023-04-02T17:12:28;3.53;;;2.63;;
65656;SDS011;57397;50.096;14.404;2023-04-02T17:15:11;2.90;;;2.33;;
65656;SDS011;57397;50.096;14.404;2023-04-02T17:20:12;3.53;;;2.45;;
65656;SDS011;57397;50.096;14.404;2023-04-02T17:22:41;3.23;;;2.60;;
65656;SDS011;57397;50.096;14.404;2023-04-02T17:25:11;2.80;;;2.30;;
65656;SDS011;57397;50.096;14.404;2023-04-02T17:27:51;3.42;;;2.50;;
65656;SDS011;57397;50.096;14.404;2023-04-02T17:30:24;3.08;;;2.42;;
65656;SDS011;57397;50.096;14.404;2023-04-02T17:33:15;3.97;;;2.30;;
65656;SDS011;57397;50.096;14.404;2023-04-02T17:38:47;3.70;;;2.30;;
65656;SDS011;57397;50.096;14.404;2023-04-02T17:47:31;3.47;;;2.20;;
65656;SDS011;57397;50.096;14.404;2023-04-02T17:50:19;3.00;;;2.15;;
65656;SDS011;57397;50.096;14.404;2023-04-02T17:52:54;3.45;;;2.50;;
65656;SDS011;57397;50.096;14.404;2023-04-02T17:58:37;2.72;;;2.00;;
65656;SDS011;57397;50.096;14.404;2023-04-02T18:04:28;2.88;;;2.00;;
65656;SDS011;57397;50.096;14.404;2023-04-02T18:07:09;2.50;;;1.85;;
65656;SDS011;57397;50.096;14.404;2023-04-02T18:09:45;2.45;;;1.90;;
65656;SDS011;57397;50.096;14.404;2023-04-02T18:15:37;3.55;;;2.13;;
65656;SDS011;57397;50.096;14.404;2023-04-02T18:18:44;3.28;;;1.90;;
65656;SDS011;57397;50.096;14.404;2023-04-02T18:27:04;3.00;;;1.90;;
65656;SDS011;57397;50.096;14.404;2023-04-02T18:32:18;2.65;;;1.88;;
65656;SDS011;57397;50.096;14.404;2023-04-02T18:40:34;2.83;;;1.90;;
65656;SDS011;57397;50.096;14.404;2023-04-02T18:45:55;3.78;;;2.13;;
65656;SDS011;57397;50.096;14.404;2023-04-02T18:48:48;4.32;;;2.20;;
65656;SDS011;57397;50.096;14.404;2023-04-02T18:51:21;2.92;;;1.90;;
65656;SDS011;57397;50.096;14.404;2023-04-02T18:53:49;3.67;;;2.13;;
65656;SDS011;57397;50.096;14.404;2023-04-02T18:56:43;3.78;;;2.22;;
65656;SDS011;57397;50.096;14.404;2023-04-02T19:01:53;4.10;;;2.40;;
65656;SDS011;57397;50.096;14.404;2023-04-02T19:04:27;5.47;;;2.65;;
65656;SDS011;57397;50.096;14.404;2023-04-02T19:07:02;4.90;;;2.95;;
65656;SDS011;57397;50.096;14.404;2023-04-02T19:09:30;6.25;;;3.30;;
65656;SDS011;57397;50.096;14.404;2023-04-02T19:11:58;6.72;;;3.50;;
65656;SDS011;57397;50.096;14.404;2023-04-02T19:14:24;6.75;;;3.50;;
65656;SDS011;57397;50.096;14.404;2023-04-02T19:19:24;5.93;;;3.60;;
65656;SDS011;57397;50.096;14.404;2023-04-02T19:24:54;6.57;;;3.97;;
65656;SDS011;57397;50.096;14.404;2023-04-02T19:27:35;6.73;;;3.37;;
65656;SDS011;57397;50.096;14.404;2023-04-02T19:30:34;5.70;;;3.57;;
65656;SDS011;57397;50.096;14.404;2023-04-02T19:41:30;7.57;;;3.67;;
65656;SDS011;57397;50.096;14.404;2023-04-02T19:46:31;6.35;;;3.08;;
65656;SDS011;57397;50.096;14.404;2023-04-02T19:51:41;4.90;;;2.83;;
65656;SDS011;57397;50.096;14.404;2023-04-02T19:54:08;4.90;;;2.80;;
65656;SDS011;57397;50.096;14.404;2023-04-02T19:56:33;5.32;;;3.08;;
65656;SDS011;57397;50.096;14.404;2023-04-02T19:58:59;4.78;;;2.72;;
65656;SDS011;57397;50.096;14.404;2023-04-02T20:01:24;4.72;;;2.53;;
65656;SDS011;57397;50.096;14.404;2023-04-02T20:03:50;3.88;;;2.60;;
65656;SDS011;57397;50.096;14.404;2023-04-02T20:06:15;3.80;;;2.50;;
65656;SDS011;57397;50.096;14.404;2023-04-02T20:08:42;4.38;;;2.40;;
65656;SDS011;57397;50.096;14.404;2023-04-02T20:11:07;3.60;;;2.33;;